sensor_id;sensor_type;location;lat;lon;timestamp;temperature;humidity
22114;DHT22;11223;49.968;9.062;2023-02-16T00:02:44;1.20;99.90
22114;DHT22;11223;49.968;9.062;2023-02-16T00:05:32;1.20;99.90
22114;DHT22;11223;49.968;9.062;2023-02-16T00:07:58;1.20;99.90
22114;DHT22;11223;49.968;9.062;2023-02-16T00:10:26;1.20;99.90
22114;DHT22;11223;49.968;9.062;2023-02-16T00:12:54;1.20;99.90
22114;DHT22;11223;49.968;9.062;2023-02-16T00:15:39;1.10;99.90
22114;DHT22;11223;49.968;9.062;2023-02-16T00:18:13;1.10;99.90
22114;DHT22;11223;49.968;9.062;2023-02-16T00:20:40;1.10;99.90
22114;DHT22;11223;49.968;9.062;2023-02-16T00:23:06;1.10;99.90
22114;DHT22;11223;49.968;9.062;2023-02-16T00:25:31;1.10;99.90
22114;DHT22;11223;49.968;9.062;2023-02-16T00:27:57;1.10;99.90
22114;DHT22;11223;49.968;9.062;2023-02-16T00:30:22;1.10;99.90
22114;DHT22;11223;49.968;9.062;2023-02-16T00:32:49;1.10;99.90
22114;DHT22;11223;49.968;9.062;2023-02-16T00:35:19;1.10;99.90
22114;DHT22;11223;49.968;9.062;2023-02-16T00:37:46;1.10;99.90
22114;DHT22;11223;49.968;9.062;2023-02-16T00:40:14;1.10;99.90
22114;DHT22;11223;49.968;9.062;2023-02-16T00:42:44;1.00;99.90
22114;DHT22;11223;49.968;9.062;2023-02-16T00:45:17;1.00;99.90
22114;DHT22;11223;49.968;9.062;2023-02-16T00:47:45;0.90;99.90
22114;DHT22;11223;49.968;9.062;2023-02-16T00:50:32;0.90;99.90
22114;DHT22;11223;49.968;9.062;2023-02-16T00:52:59;0.90;99.90
22114;DHT22;11223;49.968;9.062;2023-02-16T00:55:29;0.80;99.90
22114;DHT22;11223;49.968;9.062;2023-02-16T00:58:06;0.80;99.90
22114;DHT22;11223;49.968;9.062;2023-02-16T01:00:35;0.80;99.90
22114;DHT22;11223;49.968;9.062;2023-02-16T01:03:07;0.80;99.90
22114;DHT22;11223;49.968;9.062;2023-02-16T01:05:33;0.80;99.90
22114;DHT22;11223;49.968;9.062;2023-02-16T01:07:59;0.70;99.90
22114;DHT22;11223;49.968;9.062;2023-02-16T01:10:43;0.70;99.90
22114;DHT22;11223;49.968;9.062;2023-02-16T01:13:27;0.70;99.90
22114;DHT22;11223;49.968;9.062;2023-02-16T01:15:53;0.70;99.90
22114;DHT22;11223;49.968;9.062;2023-02-16T01:18:19;0.70;99.90
22114;DHT22;11223;49.968;9.062;2023-02-16T01:20:45;0.70;99.90
22114;DHT22;11223;49.968;9.062;2023-02-16T01:23:11;0.70;99.90
22114;DHT22;11223;49.968;9.062;2023-02-16T01:25:37;0.70;99.90
22114;DHT22;11223;49.968;9.062;2023-02-16T01:28:16;0.70;99.90
22114;DHT22;11223;49.968;9.062;2023-02-16T01:30:42;0.70;99.90
22114;DHT22;11223;49.968;9.062;2023-02-16T01:33:08;0.80;99.90
22114;DHT22;11223;49.968;9.062;2023-02-16T01:35:33;0.80;99.90
22114;DHT22;11223;49.968;9.062;2023-02-16T01:37:59;0.80;99.90
22114;DHT22;11223;49.968;9.062;2023-02-16T01:44:00;0.70;99.90
22114;DHT22;11223;49.968;9.062;2023-02-16T01:46:14;0.70;99.90
22114;DHT22;11223;49.968;9.062;2023-02-16T01:48:41;0.70;99.90
22114;DHT22;11223;49.968;9.062;2023-02-16T01:54:06;0.70;99.90
22114;DHT22;11223;49.968;9.062;2023-02-16T01:56:56;0.70;99.90
22114;DHT22;11223;49.968;9.062;2023-02-16T02:02:03;0.70;99.90
22114;DHT22;11223;49.968;9.062;2023-02-16T02:04:49;0.70;99.90
22114;DHT22;11223;49.968;9.062;2023-02-16T02:08:10;0.70;99.90
22114;DHT22;11223;49.968;9.062;2023-02-16T02:13:33;0.70;99.90
22114;DHT22;11223;49.968;9.062;2023-02-16T02:16:04;0.60;99.90
22114;DHT22;11223;49.968;9.062;2023-02-16T02:18:31;0.60;99.90
22114;DHT22;11223;49.968;9.062;2023-02-16T02:21:26;0.60;99.90
22114;DHT22;11223;49.968;9.062;2023-02-16T02:30:07;0.50;99.90
22114;DHT22;11223;49.968;9.062;2023-02-16T02:40:40;0.50;99.90
22114;DHT22;11223;49.968;9.062;2023-02-16T02:43:43;0.50;99.90
22114;DHT22;11223;49.968;9.062;2023-02-16T02:46:29;0.40;99.90
22114;DHT22;11223;49.968;9.062;2023-02-16T02:48:56;0.40;99.90
22114;DHT22;11223;49.968;9.062;2023-02-16T02:51:21;0.50;99.90
22114;DHT22;11223;49.968;9.062;2023-02-16T02:53:53;0.50;99.90
22114;DHT22;11223;49.968;9.062;2023-02-16T02:56:46;0.50;99.90
22114;DHT22;11223;49.968;9.062;2023-02-16T02:59:33;0.50;99.90
22114;DHT22;11223;49.968;9.062;2023-02-16T03:02:21;0.50;99.90
22114;DHT22;11223;49.968;9.062;2023-02-16T03:04:48;0.50;99.90
22114;DHT22;11223;49.968;9.062;2023-02-16T03:07:15;0.50;99.90
22114;DHT22;11223;49.968;9.062;2023-02-16T03:09:42;0.50;99.90
22114;DHT22;11223;49.968;9.062;2023-02-16T03:12:08;0.50;99.90
22114;DHT22;11223;49.968;9.062;2023-02-16T03:14:55;0.60;99.90
22114;DHT22;11223;49.968;9.062;2023-02-16T03:17:25;0.60;99.90
22114;DHT22;11223;49.968;9.062;2023-02-16T03:20:14;0.60;99.90
22114;DHT22;11223;49.968;9.062;2023-02-16T03:23:00;0.60;99.90
22114;DHT22;11223;49.968;9.062;2023-02-16T03:25:46;0.60;99.90
22114;DHT22;11223;49.968;9.062;2023-02-16T03:28:33;0.60;99.90
22114;DHT22;11223;49.968;9.062;2023-02-16T03:31:23;0.60;99.90
22114;DHT22;11223;49.968;9.062;2023-02-16T03:33:52;0.60;99.90
22114;DHT22;11223;49.968;9.062;2023-02-16T03:36:21;0.60;99.90
22114;DHT22;11223;49.968;9.062;2023-02-16T03:38:47;0.60;99.90
22114;DHT22;11223;49.968;9.062;2023-02-16T03:41:13;0.60;99.90
22114;DHT22;11223;49.968;9.062;2023-02-16T03:43:38;0.60;99.90
22114;DHT22;11223;49.968;9.062;2023-02-16T03:46:04;0.50;99.90
22114;DHT22;11223;49.968;9.062;2023-02-16T03:48:30;0.40;99.90
22114;DHT22;11223;49.968;9.062;2023-02-16T03:50:55;0.40;99.90
22114;DHT22;11223;49.968;9.062;2023-02-16T03:53:21;0.50;99.90
22114;DHT22;11223;49.968;9.062;2023-02-16T03:55:47;0.50;99.90
22114;DHT22;11223;49.968;9.062;2023-02-16T03:58:19;0.50;99.90
22114;DHT22;11223;49.968;9.062;2023-02-16T04:00:46;0.50;99.90
22114;DHT22;11223;49.968;9.062;2023-02-16T04:03:12;0.50;99.90
22114;DHT22;11223;49.968;9.062;2023-02-16T04:05:38;0.50;99.90
22114;DHT22;11223;49.968;9.062;2023-02-16T04:08:04;0.50;99.90
22114;DHT22;11223;49.968;9.062;2023-02-16T04:10:30;0.50;99.90
22114;DHT22;11223;49.968;9.062;2023-02-16T04:12:56;0.50;99.90
22114;DHT22;11223;49.968;9.062;2023-02-16T04:15:23;0.50;99.90
22114;DHT22;11223;49.968;9.062;2023-02-16T04:17:50;0.50;99.90
22114;DHT22;11223;49.968;9.062;2023-02-16T04:20:19;0.50;99.90
22114;DHT22;11223;49.968;9.062;2023-02-16T04:22:45;0.50;99.90
22114;DHT22;11223;49.968;9.062;2023-02-16T04:25:11;0.60;99.90
22114;DHT22;11223;49.968;9.062;2023-02-16T04:27:37;0.50;99.90
22114;DHT22;11223;49.968;9.062;2023-02-16T04:30:04;0.50;99.90
22114;DHT22;11223;49.968;9.062;2023-02-16T04:32:30;0.40;99.90
22114;DHT22;11223;49.968;9.062;2023-02-16T04:34:56;0.40;99.90
22114;DHT22;11223;49.968;9.062;2023-02-16T04:37:22;0.40;99.90
22114;DHT22;11223;49.968;9.062;2023-02-16T04:39:47;0.50;99.90
22114;DHT22;11223;49.968;9.062;2023-02-16T04:42:13;0.50;99.90
22114;DHT22;11223;49.968;9.062;2023-02-16T04:44:38;0.50;99.90
22114;DHT22;11223;49.968;9.062;2023-02-16T04:47:04;0.50;99.90
22114;DHT22;11223;49.968;9.062;2023-02-16T04:49:30;0.50;99.90
22114;DHT22;11223;49.968;9.062;2023-02-16T04:51:55;0.50;99.90
22114;DHT22;11223;49.968;9.062;2023-02-16T04:54:21;0.50;99.90
22114;DHT22;11223;49.968;9.062;2023-02-16T04:56:47;0.50;99.90
22114;DHT22;11223;49.968;9.062;2023-02-16T04:59:13;0.50;99.90
22114;DHT22;11223;49.968;9.062;2023-02-16T05:01:39;0.50;99.90
22114;DHT22;11223;49.968;9.062;2023-02-16T05:04:06;0.40;99.90
22114;DHT22;11223;49.968;9.062;2023-02-16T05:06:34;0.40;99.90
22114;DHT22;11223;49.968;9.062;2023-02-16T05:09:00;0.40;99.90
22114;DHT22;11223;49.968;9.062;2023-02-16T05:11:25;0.40;99.90
22114;DHT22;11223;49.968;9.062;2023-02-16T05:14:24;0.50;99.90
22114;DHT22;11223;49.968;9.062;2023-02-16T05:19:45;0.40;99.90
22114;DHT22;11223;49.968;9.062;2023-02-16T05:22:11;0.40;99.90
22114;DHT22;11223;49.968;9.062;2023-02-16T05:24:37;0.30;99.90
22114;DHT22;11223;49.968;9.062;2023-02-16T05:27:05;0.30;99.90
22114;DHT22;11223;49.968;9.062;2023-02-16T05:29:31;0.40;99.90
22114;DHT22;11223;49.968;9.062;2023-02-16T05:31:57;0.40;99.90
22114;DHT22;11223;49.968;9.062;2023-02-16T05:34:22;0.40;99.90
22114;DHT22;11223;49.968;9.062;2023-02-16T05:36:48;0.40;99.90
22114;DHT22;11223;49.968;9.062;2023-02-16T05:39:14;0.40;99.90
22114;DHT22;11223;49.968;9.062;2023-02-16T05:41:39;0.40;99.90
22114;DHT22;11223;49.968;9.062;2023-02-16T05:44:06;0.30;99.90
22114;DHT22;11223;49.968;9.062;2023-02-16T05:46:35;0.40;99.90
22114;DHT22;11223;49.968;9.062;2023-02-16T05:49:01;0.40;99.90
22114;DHT22;11223;49.968;9.062;2023-02-16T05:51:27;0.40;99.90
22114;DHT22;11223;49.968;9.062;2023-02-16T05:53:53;0.40;99.90
22114;DHT22;11223;49.968;9.062;2023-02-16T05:56:19;0.30;99.90
22114;DHT22;11223;49.968;9.062;2023-02-16T05:58:45;0.30;99.90
22114;DHT22;11223;49.968;9.062;2023-02-16T06:01:12;0.40;99.90
22114;DHT22;11223;49.968;9.062;2023-02-16T06:03:38;0.40;99.90
22114;DHT22;11223;49.968;9.062;2023-02-16T06:06:04;0.30;99.90
22114;DHT22;11223;49.968;9.062;2023-02-16T06:08:31;0.30;99.90
22114;DHT22;11223;49.968;9.062;2023-02-16T06:10:57;0.30;99.90
22114;DHT22;11223;49.968;9.062;2023-02-16T06:13:23;0.30;99.90
22114;DHT22;11223;49.968;9.062;2023-02-16T06:15:54;0.30;99.90
22114;DHT22;11223;49.968;9.062;2023-02-16T06:18:21;0.30;99.90
22114;DHT22;11223;49.968;9.062;2023-02-16T06:20:47;0.20;99.90
22114;DHT22;11223;49.968;9.062;2023-02-16T06:23:13;0.20;99.90
22114;DHT22;11223;49.968;9.062;2023-02-16T06:25:49;0.20;99.90
22114;DHT22;11223;49.968;9.062;2023-02-16T06:28:16;0.20;99.90
22114;DHT22;11223;49.968;9.062;2023-02-16T06:30:41;0.20;99.90
22114;DHT22;11223;49.968;9.062;2023-02-16T06:33:07;0.20;99.90
22114;DHT22;11223;49.968;9.062;2023-02-16T06:35:33;0.20;99.90
22114;DHT22;11223;49.968;9.062;2023-02-16T06:37:59;0.20;99.90
22114;DHT22;11223;49.968;9.062;2023-02-16T06:40:25;0.20;99.90
22114;DHT22;11223;49.968;9.062;2023-02-16T06:42:50;0.10;99.90
22114;DHT22;11223;49.968;9.062;2023-02-16T06:45:16;0.10;99.90
22114;DHT22;11223;49.968;9.062;2023-02-16T06:47:42;0.10;99.90
22114;DHT22;11223;49.968;9.062;2023-02-16T06:50:08;0.10;99.90
22114;DHT22;11223;49.968;9.062;2023-02-16T06:52:34;0.10;99.90
22114;DHT22;11223;49.968;9.062;2023-02-16T06:55:00;0.10;99.90
22114;DHT22;11223;49.968;9.062;2023-02-16T06:57:25;0.10;99.90
22114;DHT22;11223;49.968;9.062;2023-02-16T06:59:51;0.00;99.90
22114;DHT22;11223;49.968;9.062;2023-02-16T07:02:17;0.00;99.90
22114;DHT22;11223;49.968;9.062;2023-02-16T07:04:42;0.00;99.90
22114;DHT22;11223;49.968;9.062;2023-02-16T07:07:08;-0.10;99.90
22114;DHT22;11223;49.968;9.062;2023-02-16T07:09:37;-0.10;99.90
22114;DHT22;11223;49.968;9.062;2023-02-16T07:12:03;-0.10;99.90
22114;DHT22;11223;49.968;9.062;2023-02-16T07:14:30;-0.20;99.90
22114;DHT22;11223;49.968;9.062;2023-02-16T07:16:56;-0.20;99.90
22114;DHT22;11223;49.968;9.062;2023-02-16T07:19:24;-0.20;99.90
22114;DHT22;11223;49.968;9.062;2023-02-16T07:21:49;-0.20;99.90
22114;DHT22;11223;49.968;9.062;2023-02-16T07:24:15;-0.20;99.90
22114;DHT22;11223;49.968;9.062;2023-02-16T07:26:41;-0.10;99.90
22114;DHT22;11223;49.968;9.062;2023-02-16T07:29:06;-0.10;99.90
22114;DHT22;11223;49.968;9.062;2023-02-16T07:31:32;-0.10;99.90
22114;DHT22;11223;49.968;9.062;2023-02-16T07:33:58;0.00;99.90
22114;DHT22;11223;49.968;9.062;2023-02-16T07:36:24;0.00;99.90
22114;DHT22;11223;49.968;9.062;2023-02-16T07:38:49;0.10;99.90
22114;DHT22;11223;49.968;9.062;2023-02-16T07:41:16;0.20;99.90
22114;DHT22;11223;49.968;9.062;2023-02-16T07:43:41;0.20;99.90
22114;DHT22;11223;49.968;9.062;2023-02-16T07:46:07;0.20;99.90
22114;DHT22;11223;49.968;9.062;2023-02-16T07:48:33;0.30;99.90
22114;DHT22;11223;49.968;9.062;2023-02-16T07:50:59;0.30;99.90
22114;DHT22;11223;49.968;9.062;2023-02-16T07:53:24;0.30;99.90
22114;DHT22;11223;49.968;9.062;2023-02-16T07:55:50;0.30;99.90
22114;DHT22;11223;49.968;9.062;2023-02-16T07:58:15;0.30;99.90
22114;DHT22;11223;49.968;9.062;2023-02-16T08:01:11;0.30;99.90
22114;DHT22;11223;49.968;9.062;2023-02-16T08:03:39;0.40;99.90
22114;DHT22;11223;49.968;9.062;2023-02-16T08:06:05;0.40;99.90
22114;DHT22;11223;49.968;9.062;2023-02-16T08:08:31;0.40;99.90
22114;DHT22;11223;49.968;9.062;2023-02-16T08:10:57;0.50;99.90
22114;DHT22;11223;49.968;9.062;2023-02-16T08:13:23;0.50;99.90
22114;DHT22;11223;49.968;9.062;2023-02-16T08:15:48;0.60;99.90
22114;DHT22;11223;49.968;9.062;2023-02-16T08:18:14;0.60;99.90
22114;DHT22;11223;49.968;9.062;2023-02-16T08:20:40;0.60;99.90
22114;DHT22;11223;49.968;9.062;2023-02-16T08:23:06;0.70;99.90
22114;DHT22;11223;49.968;9.062;2023-02-16T08:25:33;0.70;99.90
22114;DHT22;11223;49.968;9.062;2023-02-16T08:27:58;0.70;99.90
22114;DHT22;11223;49.968;9.062;2023-02-16T08:30:25;0.80;99.90
22114;DHT22;11223;49.968;9.062;2023-02-16T08:32:50;0.80;99.90
22114;DHT22;11223;49.968;9.062;2023-02-16T08:35:18;0.80;99.90
22114;DHT22;11223;49.968;9.062;2023-02-16T08:37:43;0.80;99.90
22114;DHT22;11223;49.968;9.062;2023-02-16T08:40:09;0.90;99.90
22114;DHT22;11223;49.968;9.062;2023-02-16T08:42:36;0.90;99.90
22114;DHT22;11223;49.968;9.062;2023-02-16T08:45:03;0.90;99.90
22114;DHT22;11223;49.968;9.062;2023-02-16T08:47:29;0.90;99.90
22114;DHT22;11223;49.968;9.062;2023-02-16T08:49:55;0.90;99.90
22114;DHT22;11223;49.968;9.062;2023-02-16T08:52:20;0.90;99.90
22114;DHT22;11223;49.968;9.062;2023-02-16T08:54:46;1.00;99.90
22114;DHT22;11223;49.968;9.062;2023-02-16T08:57:12;1.00;99.90
22114;DHT22;11223;49.968;9.062;2023-02-16T08:59:38;1.00;99.90
22114;DHT22;11223;49.968;9.062;2023-02-16T09:02:04;1.10;99.90
22114;DHT22;11223;49.968;9.062;2023-02-16T09:04:30;1.10;99.90
22114;DHT22;11223;49.968;9.062;2023-02-16T09:06:56;1.10;99.90
22114;DHT22;11223;49.968;9.062;2023-02-16T09:09:22;1.20;99.90
22114;DHT22;11223;49.968;9.062;2023-02-16T09:11:48;1.20;99.90
22114;DHT22;11223;49.968;9.062;2023-02-16T09:14:16;1.20;99.90
22114;DHT22;11223;49.968;9.062;2023-02-16T09:16:42;1.30;99.90
22114;DHT22;11223;49.968;9.062;2023-02-16T09:19:14;1.40;99.90
22114;DHT22;11223;49.968;9.062;2023-02-16T09:21:41;1.40;99.90
22114;DHT22;11223;49.968;9.062;2023-02-16T09:24:07;1.40;99.90
22114;DHT22;11223;49.968;9.062;2023-02-16T09:26:35;1.40;99.90
22114;DHT22;11223;49.968;9.062;2023-02-16T09:29:06;1.50;99.90
22114;DHT22;11223;49.968;9.062;2023-02-16T09:31:34;1.50;99.90
22114;DHT22;11223;49.968;9.062;2023-02-16T09:36:27;1.70;99.90
22114;DHT22;11223;49.968;9.062;2023-02-16T09:38:53;1.80;99.90
22114;DHT22;11223;49.968;9.062;2023-02-16T09:41:27;1.90;99.90
22114;DHT22;11223;49.968;9.062;2023-02-16T09:46:43;2.10;99.90
22114;DHT22;11223;49.968;9.062;2023-02-16T09:49:40;2.20;99.90
22114;DHT22;11223;49.968;9.062;2023-02-16T09:52:28;2.30;99.90
22114;DHT22;11223;49.968;9.062;2023-02-16T09:54:58;2.40;99.90
22114;DHT22;11223;49.968;9.062;2023-02-16T10:09:07;2.40;99.90
22114;DHT22;11223;49.968;9.062;2023-02-16T10:11:41;2.50;99.90
22114;DHT22;11223;49.968;9.062;2023-02-16T10:14:33;2.60;99.90
22114;DHT22;11223;49.968;9.062;2023-02-16T10:17:23;2.80;99.90
22114;DHT22;11223;49.968;9.062;2023-02-16T10:20:02;2.90;99.90
22114;DHT22;11223;49.968;9.062;2023-02-16T10:25:31;3.20;99.90
22114;DHT22;11223;49.968;9.062;2023-02-16T10:31:01;3.50;99.90
22114;DHT22;11223;49.968;9.062;2023-02-16T10:33:35;3.80;99.90
22114;DHT22;11223;49.968;9.062;2023-02-16T10:36:13;3.80;99.90
22114;DHT22;11223;49.968;9.062;2023-02-16T10:41:33;4.70;99.90
22114;DHT22;11223;49.968;9.062;2023-02-16T10:46:45;6.30;99.90
22114;DHT22;11223;49.968;9.062;2023-02-16T10:49:13;7.50;99.90
22114;DHT22;11223;49.968;9.062;2023-02-16T10:51:40;8.70;99.90
22114;DHT22;11223;49.968;9.062;2023-02-16T10:54:18;9.20;99.90
22114;DHT22;11223;49.968;9.062;2023-02-16T10:56:51;9.70;99.90
22114;DHT22;11223;49.968;9.062;2023-02-16T10:59:22;10.10;99.90
22114;DHT22;11223;49.968;9.062;2023-02-16T11:01:53;10.70;99.90
22114;DHT22;11223;49.968;9.062;2023-02-16T11:04:43;11.00;99.90
22114;DHT22;11223;49.968;9.062;2023-02-16T11:09:40;11.00;99.90
22114;DHT22;11223;49.968;9.062;2023-02-16T11:15:35;11.30;99.90
22114;DHT22;11223;49.968;9.062;2023-02-16T11:25:39;10.60;99.90
22114;DHT22;11223;49.968;9.062;2023-02-16T11:28:05;10.60;99.90
22114;DHT22;11223;49.968;9.062;2023-02-16T11:30:37;10.30;99.90
22114;DHT22;11223;49.968;9.062;2023-02-16T11:33:21;10.10;99.90
22114;DHT22;11223;49.968;9.062;2023-02-16T11:35:48;10.40;99.90
22114;DHT22;11223;49.968;9.062;2023-02-16T11:38:29;10.20;99.90
22114;DHT22;11223;49.968;9.062;2023-02-16T11:40:57;9.90;99.90
22114;DHT22;11223;49.968;9.062;2023-02-16T11:43:27;10.20;99.90
22114;DHT22;11223;49.968;9.062;2023-02-16T11:46:04;10.40;99.90
22114;DHT22;11223;49.968;9.062;2023-02-16T11:48:32;10.50;99.90
22114;DHT22;11223;49.968;9.062;2023-02-16T11:51:01;10.20;99.90
22114;DHT22;11223;49.968;9.062;2023-02-16T11:53:30;9.80;99.90
22114;DHT22;11223;49.968;9.062;2023-02-16T11:56:24;9.50;99.90
22114;DHT22;11223;49.968;9.062;2023-02-16T11:59:15;9.00;99.90
22114;DHT22;11223;49.968;9.062;2023-02-16T12:04:53;8.10;99.90
22114;DHT22;11223;49.968;9.062;2023-02-16T12:22:13;7.00;99.90
22114;DHT22;11223;49.968;9.062;2023-02-16T12:27:19;7.20;99.90
22114;DHT22;11223;49.968;9.062;2023-02-16T12:41:52;7.60;99.90
22114;DHT22;11223;49.968;9.062;2023-02-16T12:44:37;7.50;99.90
22114;DHT22;11223;49.968;9.062;2023-02-16T12:47:17;7.40;99.90
22114;DHT22;11223;49.968;9.062;2023-02-16T12:49:53;7.40;99.90
22114;DHT22;11223;49.968;9.062;2023-02-16T12:55:03;7.80;99.90
22114;DHT22;11223;49.968;9.062;2023-02-16T12:57:31;8.00;99.90
22114;DHT22;11223;49.968;9.062;2023-02-16T13:11:10;8.00;99.90
22114;DHT22;11223;49.968;9.062;2023-02-16T13:13:39;8.00;99.90
22114;DHT22;11223;49.968;9.062;2023-02-16T13:16:30;8.00;99.90
22114;DHT22;11223;49.968;9.062;2023-02-16T13:19:02;8.10;99.90
22114;DHT22;11223;49.968;9.062;2023-02-16T13:27:03;8.40;99.90
22114;DHT22;11223;49.968;9.062;2023-02-16T13:43:38;8.30;99.90
22114;DHT22;11223;49.968;9.062;2023-02-16T13:45:57;8.30;99.90
22114;DHT22;11223;49.968;9.062;2023-02-16T13:48:49;8.20;99.90
22114;DHT22;11223;49.968;9.062;2023-02-16T13:51:25;8.20;99.90
22114;DHT22;11223;49.968;9.062;2023-02-16T13:53:55;8.20;99.90
22114;DHT22;11223;49.968;9.062;2023-02-16T13:58:55;8.00;99.90
22114;DHT22;11223;49.968;9.062;2023-02-16T14:03:59;8.00;99.90
22114;DHT22;11223;49.968;9.062;2023-02-16T14:14:26;7.90;99.90
22114;DHT22;11223;49.968;9.062;2023-02-16T14:16:52;7.90;99.90
22114;DHT22;11223;49.968;9.062;2023-02-16T14:19:23;7.90;99.90
22114;DHT22;11223;49.968;9.062;2023-02-16T14:21:50;7.90;99.90
22114;DHT22;11223;49.968;9.062;2023-02-16T14:24:29;7.80;99.90
22114;DHT22;11223;49.968;9.062;2023-02-16T14:26:59;7.80;99.90
22114;DHT22;11223;49.968;9.062;2023-02-16T14:29:51;7.80;99.90
22114;DHT22;11223;49.968;9.062;2023-02-16T14:32:26;7.70;99.90
22114;DHT22;11223;49.968;9.062;2023-02-16T14:35:27;7.70;99.90
22114;DHT22;11223;49.968;9.062;2023-02-16T14:38:00;7.70;99.90
22114;DHT22;11223;49.968;9.062;2023-02-16T14:40:52;7.70;99.90
22114;DHT22;11223;49.968;9.062;2023-02-16T14:54:29;7.60;99.90
22114;DHT22;11223;49.968;9.062;2023-02-16T14:57:04;7.60;99.90
22114;DHT22;11223;49.968;9.062;2023-02-16T15:02:27;7.60;99.90
22114;DHT22;11223;49.968;9.062;2023-02-16T15:04:53;7.50;99.90
22114;DHT22;11223;49.968;9.062;2023-02-16T15:07:19;7.50;99.90
22114;DHT22;11223;49.968;9.062;2023-02-16T15:09:46;7.50;99.90
22114;DHT22;11223;49.968;9.062;2023-02-16T15:12:14;7.40;99.90
22114;DHT22;11223;49.968;9.062;2023-02-16T15:14:58;7.40;99.90
22114;DHT22;11223;49.968;9.062;2023-02-16T15:17:45;7.30;99.90
22114;DHT22;11223;49.968;9.062;2023-02-16T15:20:28;7.30;99.90
22114;DHT22;11223;49.968;9.062;2023-02-16T15:23:01;7.30;99.90
22114;DHT22;11223;49.968;9.062;2023-02-16T15:25:33;7.30;99.90
22114;DHT22;11223;49.968;9.062;2023-02-16T15:28:00;7.30;99.90
22114;DHT22;11223;49.968;9.062;2023-02-16T15:30:32;7.20;99.90
22114;DHT22;11223;49.968;9.062;2023-02-16T15:33:24;7.20;99.90
22114;DHT22;11223;49.968;9.062;2023-02-16T15:35:53;7.20;99.90
22114;DHT22;11223;49.968;9.062;2023-02-16T15:38:28;7.20;99.90
22114;DHT22;11223;49.968;9.062;2023-02-16T15:41:03;7.10;99.90
22114;DHT22;11223;49.968;9.062;2023-02-16T15:43:46;7.10;99.90
22114;DHT22;11223;49.968;9.062;2023-02-16T15:46:31;7.00;99.90
22114;DHT22;11223;49.968;9.062;2023-02-16T15:48:58;7.00;99.90
22114;DHT22;11223;49.968;9.062;2023-02-16T15:51:34;7.00;99.90
22114;DHT22;11223;49.968;9.062;2023-02-16T15:54:04;7.00;99.90
22114;DHT22;11223;49.968;9.062;2023-02-16T15:56:44;7.00;99.90
22114;DHT22;11223;49.968;9.062;2023-02-16T15:59:43;6.90;99.90
22114;DHT22;11223;49.968;9.062;2023-02-16T16:02:26;6.90;99.90
22114;DHT22;11223;49.968;9.062;2023-02-16T16:04:59;6.80;99.90
22114;DHT22;11223;49.968;9.062;2023-02-16T16:07:27;6.80;99.90
22114;DHT22;11223;49.968;9.062;2023-02-16T16:09:54;6.80;99.90
22114;DHT22;11223;49.968;9.062;2023-02-16T16:12:21;6.80;99.90
22114;DHT22;11223;49.968;9.062;2023-02-16T16:14:50;6.70;99.90
22114;DHT22;11223;49.968;9.062;2023-02-16T16:17:22;6.70;99.90
22114;DHT22;11223;49.968;9.062;2023-02-16T16:19:49;6.60;99.90
22114;DHT22;11223;49.968;9.062;2023-02-16T16:22:35;6.60;99.90
22114;DHT22;11223;49.968;9.062;2023-02-16T16:25:26;6.60;99.90
22114;DHT22;11223;49.968;9.062;2023-02-16T16:27:48;6.60;99.90
22114;DHT22;11223;49.968;9.062;2023-02-16T16:30:24;6.50;99.90
22114;DHT22;11223;49.968;9.062;2023-02-16T16:33:03;6.50;99.90
22114;DHT22;11223;49.968;9.062;2023-02-16T16:35:41;6.50;99.90
22114;DHT22;11223;49.968;9.062;2023-02-16T16:38:21;6.50;99.90
22114;DHT22;11223;49.968;9.062;2023-02-16T16:40:58;6.40;99.90
22114;DHT22;11223;49.968;9.062;2023-02-16T16:43:35;6.40;99.90
22114;DHT22;11223;49.968;9.062;2023-02-16T16:46:23;6.30;99.90
22114;DHT22;11223;49.968;9.062;2023-02-16T16:48:59;6.30;99.90
22114;DHT22;11223;49.968;9.062;2023-02-16T16:51:38;6.30;99.90
22114;DHT22;11223;49.968;9.062;2023-02-16T16:54:08;6.30;99.90
22114;DHT22;11223;49.968;9.062;2023-02-16T16:56:39;6.20;99.90
22114;DHT22;11223;49.968;9.062;2023-02-16T16:59:06;6.20;99.90
22114;DHT22;11223;49.968;9.062;2023-02-16T17:01:32;6.10;99.90
22114;DHT22;11223;49.968;9.062;2023-02-16T17:03:59;6.10;99.90
22114;DHT22;11223;49.968;9.062;2023-02-16T17:06:25;6.10;99.90
22114;DHT22;11223;49.968;9.062;2023-02-16T17:08:51;6.10;99.90
22114;DHT22;11223;49.968;9.062;2023-02-16T17:11:29;6.10;99.90
22114;DHT22;11223;49.968;9.062;2023-02-16T17:13:59;6.10;99.90
22114;DHT22;11223;49.968;9.062;2023-02-16T17:16:35;6.10;99.90
22114;DHT22;11223;49.968;9.062;2023-02-16T17:19:01;6.00;99.90
22114;DHT22;11223;49.968;9.062;2023-02-16T17:21:28;6.00;99.90
22114;DHT22;11223;49.968;9.062;2023-02-16T17:23:53;6.00;99.90
22114;DHT22;11223;49.968;9.062;2023-02-16T17:26:22;5.90;99.90
22114;DHT22;11223;49.968;9.062;2023-02-16T17:28:48;5.90;99.90
22114;DHT22;11223;49.968;9.062;2023-02-16T17:31:14;5.90;99.90
22114;DHT22;11223;49.968;9.062;2023-02-16T17:33:40;5.90;99.90
22114;DHT22;11223;49.968;9.062;2023-02-16T17:36:07;5.80;99.90
22114;DHT22;11223;49.968;9.062;2023-02-16T17:38:33;5.90;99.90
22114;DHT22;11223;49.968;9.062;2023-02-16T17:40:58;5.90;99.90
22114;DHT22;11223;49.968;9.062;2023-02-16T17:43:25;5.90;99.90
22114;DHT22;11223;49.968;9.062;2023-02-16T17:45:52;5.90;99.90
22114;DHT22;11223;49.968;9.062;2023-02-16T17:48:21;5.90;99.90
22114;DHT22;11223;49.968;9.062;2023-02-16T17:50:47;5.90;99.90
22114;DHT22;11223;49.968;9.062;2023-02-16T17:53:19;5.90;99.90
22114;DHT22;11223;49.968;9.062;2023-02-16T17:55:46;5.80;99.90
22114;DHT22;11223;49.968;9.062;2023-02-16T17:58:13;5.90;99.90
22114;DHT22;11223;49.968;9.062;2023-02-16T18:00:39;5.90;99.90
22114;DHT22;11223;49.968;9.062;2023-02-16T18:03:05;5.90;99.90
22114;DHT22;11223;49.968;9.062;2023-02-16T18:05:32;5.80;99.90
22114;DHT22;11223;49.968;9.062;2023-02-16T18:07:58;5.80;99.90
22114;DHT22;11223;49.968;9.062;2023-02-16T18:10:44;5.90;99.90
22114;DHT22;11223;49.968;9.062;2023-02-16T18:13:10;5.80;99.90
22114;DHT22;11223;49.968;9.062;2023-02-16T18:15:37;5.80;99.90
22114;DHT22;11223;49.968;9.062;2023-02-16T18:18:04;5.90;99.90
22114;DHT22;11223;49.968;9.062;2023-02-16T18:20:30;5.90;99.90
22114;DHT22;11223;49.968;9.062;2023-02-16T18:22:55;5.90;99.90
22114;DHT22;11223;49.968;9.062;2023-02-16T18:25:22;5.90;99.90
22114;DHT22;11223;49.968;9.062;2023-02-16T18:27:48;5.80;99.90
22114;DHT22;11223;49.968;9.062;2023-02-16T18:30:14;5.80;99.90
22114;DHT22;11223;49.968;9.062;2023-02-16T18:32:40;5.80;99.90
22114;DHT22;11223;49.968;9.062;2023-02-16T18:35:07;5.80;99.90
22114;DHT22;11223;49.968;9.062;2023-02-16T18:37:34;5.80;99.90
22114;DHT22;11223;49.968;9.062;2023-02-16T18:39:59;5.80;99.90
22114;DHT22;11223;49.968;9.062;2023-02-16T18:42:25;5.80;99.90
22114;DHT22;11223;49.968;9.062;2023-02-16T18:44:51;5.80;99.90
22114;DHT22;11223;49.968;9.062;2023-02-16T18:47:16;5.80;99.90
22114;DHT22;11223;49.968;9.062;2023-02-16T18:49:42;5.80;99.90
22114;DHT22;11223;49.968;9.062;2023-02-16T18:52:08;5.80;99.90